createdAt,value
2022-12-25T00:01:20.435Z,100707.09
2022-12-25T00:03:47.181Z,100710.47
2022-12-25T00:06:14.209Z,100703.09
2022-12-25T00:08:41.595Z,100706.28
2022-12-25T00:11:13.496Z,100702.28
2022-12-25T00:13:40.417Z,100696.94
2022-12-25T00:16:09.806Z,100697.31
2022-12-25T00:18:36.401Z,100708.81
2022-12-25T00:21:06.405Z,100704.50
2022-12-25T00:23:35.318Z,100713.84
2022-12-25T00:26:11.047Z,100712.94
2022-12-25T00:28:38.094Z,100715.59
2022-12-25T00:31:14.791Z,100708.72
2022-12-25T00:33:43.185Z,100698.72
2022-12-25T00:36:10.739Z,100695.56
2022-12-25T00:38:39.210Z,100699.44
2022-12-25T00:41:10.637Z,100694.44
2022-12-25T00:43:38.389Z,100683.25
2022-12-25T00:46:06.706Z,100685.72
2022-12-25T00:48:34.726Z,100688.03
2022-12-25T00:51:04.486Z,100690.09
2022-12-25T00:53:31.667Z,100685.22
2022-12-25T00:56:01.511Z,100684.03
2022-12-25T00:58:30.474Z,100685.25
2022-12-25T01:00:57.289Z,100689.53
2022-12-25T01:03:24.273Z,100691.72
2022-12-25T01:06:03.735Z,100690.38
2022-12-25T01:08:33.496Z,100690.59
2022-12-25T01:11:04.205Z,100681.22
2022-12-25T01:13:32.175Z,100683.16
2022-12-25T01:15:58.783Z,100679.97
2022-12-25T01:18:25.809Z,100676.47
2022-12-25T01:20:52.337Z,100683.00
2022-12-25T01:23:19.003Z,100689.78
2022-12-25T01:25:45.603Z,100689.00
2022-12-25T01:28:12.193Z,100681.22
2022-12-25T01:30:38.715Z,100673.78
2022-12-25T01:33:05.355Z,100672.94
2022-12-25T01:35:31.880Z,100674.69
2022-12-25T01:37:58.494Z,100667.34
2022-12-25T01:40:25.010Z,100667.28
2022-12-25T01:42:51.664Z,100669.47
2022-12-25T01:45:33.689Z,100667.38
2022-12-25T01:48:07.858Z,100668.94
2022-12-25T01:50:37.352Z,100661.84
2022-12-25T01:53:04.298Z,100677.00
2022-12-25T01:55:32.977Z,100668.75
2022-12-25T01:57:59.615Z,100671.75
2022-12-25T02:00:26.129Z,100673.78
2022-12-25T02:02:52.825Z,100668.06
2022-12-25T02:05:27.058Z,100680.66
2022-12-25T02:07:56.026Z,100686.13
2022-12-25T02:10:22.596Z,100686.34
2022-12-25T02:12:49.318Z,100684.91
2022-12-25T02:15:19.678Z,100689.78
2022-12-25T02:18:01.513Z,100678.22
2022-12-25T02:20:40.282Z,100690.41
2022-12-25T02:23:37.932Z,100684.03
2022-12-25T02:26:31.590Z,100687.44
2022-12-25T02:29:17.736Z,100686.41
2022-12-25T02:32:02.989Z,100687.50
2022-12-25T02:34:40.686Z,100690.81
2022-12-25T02:37:19.691Z,100698.91
2022-12-25T02:39:59.342Z,100697.59
2022-12-25T02:43:06.524Z,100686.41
2022-12-25T02:46:04.047Z,100690.53
2022-12-25T02:48:53.820Z,100688.78
2022-12-25T02:51:44.717Z,100692.53
2022-12-25T02:54:34.670Z,100694.91
2022-12-25T02:57:24.206Z,100695.06
2022-12-25T03:00:10.846Z,100695.88
2022-12-25T03:03:00.833Z,100698.56
2022-12-25T03:05:48.177Z,100707.75
2022-12-25T03:08:21.293Z,100705.84
2022-12-25T03:11:30.291Z,100710.63
2022-12-25T03:14:27.206Z,100699.38
2022-12-25T03:16:56.254Z,100703.09
2022-12-25T03:19:44.752Z,100697.84
2022-12-25T03:22:37.536Z,100690.44
2022-12-25T03:25:23.316Z,100686.81
2022-12-25T03:27:52.558Z,100684.06
2022-12-25T03:30:37.690Z,100685.94
2022-12-25T03:33:45.994Z,100681.78
2022-12-25T03:36:16.865Z,100670.25
2022-12-25T03:39:12.662Z,100675.63
2022-12-25T03:42:06.197Z,100662.50
2022-12-25T03:44:53.626Z,100663.84
2022-12-25T03:47:34.896Z,100641.72
2022-12-25T03:50:34.684Z,100637.75
2022-12-25T03:53:23.481Z,100639.25
2022-12-25T03:56:10.716Z,100641.56
2022-12-25T03:58:55.957Z,100642.44
2022-12-25T04:01:41.159Z,100637.50
2022-12-25T04:04:26.827Z,100619.44
2022-12-25T04:07:11.868Z,100614.41
2022-12-25T04:10:16.942Z,100622.13
2022-12-25T04:13:02.519Z,100625.28
2022-12-25T04:15:47.595Z,100617.84
2022-12-25T04:18:32.728Z,100626.81
2022-12-25T04:21:17.944Z,100627.75
2022-12-25T04:24:03.285Z,100631.13
2022-12-25T04:26:50.092Z,100637.53
2022-12-25T04:29:35.023Z,100639.25
2022-12-25T04:32:20.237Z,100635.63
2022-12-25T04:35:05.600Z,100643.91
2022-12-25T04:37:32.158Z,100623.84
2022-12-25T04:39:58.710Z,100616.84
2022-12-25T04:42:25.247Z,100620.75
2022-12-25T04:44:52.113Z,100639.66
2022-12-25T04:47:18.689Z,100643.03
2022-12-25T04:49:45.261Z,100651.50
2022-12-25T04:52:11.804Z,100644.66
2022-12-25T04:54:38.612Z,100637.47
2022-12-25T04:57:05.245Z,100633.28
2022-12-25T04:59:31.749Z,100623.50
2022-12-25T05:01:58.469Z,100620.44
2022-12-25T05:04:25.319Z,100618.38
2022-12-25T05:06:51.914Z,100620.50
2022-12-25T05:09:18.476Z,100616.28
2022-12-25T05:11:45.038Z,100617.97
2022-12-25T05:14:11.623Z,100626.44
2022-12-25T05:16:38.323Z,100614.78
2022-12-25T05:19:04.881Z,100624.59
2022-12-25T05:21:31.473Z,100623.13
2022-12-25T05:23:58.090Z,100614.44
2022-12-25T05:26:26.335Z,100612.72
2022-12-25T05:28:53.849Z,100614.00
2022-12-25T05:31:21.028Z,100610.66
2022-12-25T05:33:52.143Z,100602.41
2022-12-25T05:36:18.952Z,100605.44
2022-12-25T05:38:45.555Z,100595.06
2022-12-25T05:41:12.360Z,100596.69
2022-12-25T05:43:38.901Z,100605.84
2022-12-25T05:46:07.428Z,100610.34
2022-12-25T05:48:36.601Z,100607.16
2022-12-25T05:51:05.553Z,100612.78
2022-12-25T05:53:32.270Z,100606.84
2022-12-25T05:56:02.593Z,100608.84
2022-12-25T05:58:30.428Z,100597.00
2022-12-25T06:00:57.523Z,100587.81
2022-12-25T06:03:24.760Z,100591.56
2022-12-25T06:05:52.542Z,100585.91
2022-12-25T06:08:19.381Z,100590.94
2022-12-25T06:10:46.377Z,100590.69
2022-12-25T06:13:13.208Z,100588.03
2022-12-25T06:15:41.093Z,100589.13
2022-12-25T06:18:07.940Z,100585.34
2022-12-25T06:20:34.511Z,100587.44
2022-12-25T06:23:01.373Z,100570.03
2022-12-25T06:25:27.948Z,100565.69
2022-12-25T06:27:54.530Z,100558.78
2022-12-25T06:30:21.084Z,100564.91
2022-12-25T06:32:47.671Z,100565.66
2022-12-25T06:35:14.319Z,100570.31
2022-12-25T06:37:41.082Z,100568.34
2022-12-25T06:40:08.260Z,100559.81
2022-12-25T06:42:34.980Z,100555.56
2022-12-25T06:45:01.572Z,100546.66
2022-12-25T06:47:28.162Z,100543.25
2022-12-25T06:49:54.652Z,100532.84
2022-12-25T06:52:21.238Z,100536.78
2022-12-25T06:54:47.811Z,100535.97
2022-12-25T06:57:14.385Z,100525.75
2022-12-25T06:59:40.954Z,100523.66
2022-12-25T07:02:16.799Z,100539.56
2022-12-25T07:04:43.628Z,100531.72
2022-12-25T07:07:10.374Z,100525.63
2022-12-25T07:09:38.847Z,100525.75
2022-12-25T07:12:17.091Z,100514.72
2022-12-25T07:14:44.486Z,100515.75
2022-12-25T07:17:11.654Z,100515.19
2022-12-25T07:19:44.501Z,100504.34
2022-12-25T07:22:11.719Z,100506.31
2022-12-25T07:24:38.262Z,100491.88
2022-12-25T07:27:05.086Z,100492.72
2022-12-25T07:29:31.741Z,100489.34
2022-12-25T07:31:58.462Z,100485.50
2022-12-25T07:34:25.513Z,100482.91
2022-12-25T07:36:54.871Z,100473.75
2022-12-25T07:39:21.419Z,100474.84
2022-12-25T07:41:48.003Z,100482.91
2022-12-25T07:44:15.819Z,100491.56
2022-12-25T07:46:42.895Z,100510.50
2022-12-25T07:49:10.651Z,100509.91
2022-12-25T07:51:37.540Z,100510.94
2022-12-25T07:54:04.172Z,100503.53
2022-12-25T07:56:30.708Z,100490.19
2022-12-25T07:58:57.281Z,100475.31
2022-12-25T08:01:28.742Z,100475.25
2022-12-25T08:03:57.783Z,100473.75
2022-12-25T08:06:29.480Z,100474.47
2022-12-25T08:08:57.745Z,100474.84
2022-12-25T08:11:24.339Z,100476.53
2022-12-25T08:13:50.906Z,100461.22
2022-12-25T08:16:17.472Z,100445.53
2022-12-25T08:18:44.358Z,100457.06
2022-12-25T08:21:13.439Z,100462.72
2022-12-25T08:23:42.972Z,100474.84
2022-12-25T08:26:13.514Z,100482.94
2022-12-25T08:28:40.223Z,100487.56
2022-12-25T08:31:15.759Z,100481.00
2022-12-25T08:33:43.336Z,100499.06
2022-12-25T08:36:12.077Z,100504.41
2022-12-25T08:38:39.413Z,100515.16
2022-12-25T08:41:06.706Z,100516.94
2022-12-25T08:43:33.756Z,100502.91
2022-12-25T08:46:00.339Z,100476.16
2022-12-25T08:48:28.066Z,100464.28
2022-12-25T08:50:55.141Z,100471.91
2022-12-25T08:53:22.475Z,100485.03
2022-12-25T08:55:49.655Z,100501.75
2022-12-25T08:58:16.570Z,100511.06
2022-12-25T09:00:43.345Z,100509.44
2022-12-25T09:03:10.003Z,100500.06
2022-12-25T09:05:37.573Z,100483.38
2022-12-25T09:08:04.431Z,100498.03
2022-12-25T09:10:31.023Z,100487.16
2022-12-25T09:12:57.678Z,100482.03
2022-12-25T09:15:24.350Z,100476.31
2022-12-25T09:17:51.027Z,100474.19
2022-12-25T09:20:17.635Z,100477.38
2022-12-25T09:22:44.340Z,100482.47
2022-12-25T09:25:11.033Z,100478.00
2022-12-25T09:27:37.681Z,100472.78
2022-12-25T09:30:05.519Z,100462.16
2022-12-25T09:32:32.192Z,100463.00
2022-12-25T09:34:58.829Z,100477.88
2022-12-25T09:37:25.440Z,100484.25
2022-12-25T09:39:52.121Z,100480.22
2022-12-25T09:42:28.503Z,100486.75
2022-12-25T09:45:02.827Z,100493.09
2022-12-25T09:47:32.212Z,100490.56
2022-12-25T09:50:19.205Z,100503.34
2022-12-25T09:52:57.440Z,100509.72
2022-12-25T09:55:26.312Z,100513.72
2022-12-25T09:58:00.397Z,100527.53
2022-12-25T10:00:43.838Z,100511.41
2022-12-25T10:03:18.965Z,100517.34
2022-12-25T10:05:51.221Z,100516.06
2022-12-25T10:08:40.805Z,100507.59
2022-12-25T10:11:25.943Z,100495.19
2022-12-25T10:14:16.272Z,100479.09
2022-12-25T10:16:48.951Z,100475.06
2022-12-25T10:19:27.836Z,100472.88
2022-12-25T10:21:58.794Z,100465.50
2022-12-25T10:24:33.050Z,100455.75
2022-12-25T10:27:04.493Z,100450.00
2022-12-25T10:29:34.663Z,100453.16
2022-12-25T10:32:01.549Z,100436.84
2022-12-25T10:34:28.815Z,100423.25
2022-12-25T10:36:55.530Z,100410.31
2022-12-25T10:39:24.868Z,100413.09
2022-12-25T10:42:19.444Z,100422.41
2022-12-25T10:44:57.669Z,100420.72
2022-12-25T10:47:33.625Z,100420.69
2022-12-25T10:50:07.780Z,100426.88
2022-12-25T10:52:34.575Z,100430.22
2022-12-25T10:55:11.490Z,100434.91
2022-12-25T10:57:45.904Z,100433.84
2022-12-25T11:00:31.444Z,100428.09
2022-12-25T11:02:59.062Z,100422.19
2022-12-25T11:05:28.208Z,100415.00
2022-12-25T11:07:56.800Z,100407.34
2022-12-25T11:10:34.783Z,100406.47
2022-12-25T11:13:05.327Z,100406.06
2022-12-25T11:15:41.677Z,100403.72
2022-12-25T11:18:26.521Z,100413.25
2022-12-25T11:21:00.574Z,100395.88
2022-12-25T11:23:30.166Z,100391.88
2022-12-25T11:26:00.697Z,100387.84
2022-12-25T11:28:29.548Z,100381.03
2022-12-25T11:31:05.515Z,100372.13
2022-12-25T11:33:40.729Z,100373.84
2022-12-25T11:36:29.990Z,100369.81
2022-12-25T11:39:05.193Z,100365.78
2022-12-25T11:41:34.287Z,100363.22
2022-12-25T11:44:05.102Z,100353.03
2022-12-25T11:46:44.949Z,100346.91
2022-12-25T11:49:17.860Z,100347.31
2022-12-25T11:51:47.613Z,100336.06
2022-12-25T11:54:25.142Z,100310.38
2022-12-25T11:56:52.185Z,100305.72
2022-12-25T11:59:27.695Z,100308.03
2022-12-25T12:02:00.410Z,100297.66
2022-12-25T12:04:42.908Z,100290.91
2022-12-25T12:07:29.035Z,100275.38
2022-12-25T12:10:05.128Z,100274.91
2022-12-25T12:12:46.619Z,100265.81
2022-12-25T12:15:30.984Z,100270.22
2022-12-25T12:18:23.555Z,100267.25
2022-12-25T12:21:28.864Z,100271.47
2022-12-25T12:24:03.522Z,100271.53
2022-12-25T12:26:36.638Z,100281.06
2022-12-25T12:29:06.809Z,100267.91
2022-12-25T12:31:43.397Z,100268.16
2022-12-25T12:34:26.391Z,100262.41
2022-12-25T12:37:05.996Z,100263.41
2022-12-25T12:39:38.418Z,100264.66
2022-12-25T12:42:17.883Z,100265.06
2022-12-25T12:44:46.104Z,100275.75
2022-12-25T12:47:30.437Z,100260.34
2022-12-25T12:49:59.200Z,100247.13
2022-12-25T12:52:35.270Z,100255.41
2022-12-25T12:55:08.479Z,100236.56
2022-12-25T12:57:39.684Z,100243.31
2022-12-25T13:00:17.030Z,100259.72
2022-12-25T13:02:43.596Z,100236.75
2022-12-25T13:05:50.478Z,100234.06
2022-12-25T13:08:35.239Z,100213.25
2022-12-25T13:11:21.076Z,100214.50
2022-12-25T13:13:49.506Z,100202.88
2022-12-25T13:16:25.209Z,100205.56
2022-12-25T13:18:53.382Z,100209.22
2022-12-25T13:21:24.129Z,100208.03
2022-12-25T13:24:00.381Z,100209.81
2022-12-25T13:26:27.920Z,100204.28
2022-12-25T13:28:55.937Z,100205.59
2022-12-25T13:31:28.533Z,100199.59
2022-12-25T13:34:05.430Z,100197.28
2022-12-25T13:36:37.727Z,100204.53
2022-12-25T13:39:07.857Z,100203.50
2022-12-25T13:42:00.235Z,100196.94
2022-12-25T13:44:32.260Z,100190.75
2022-12-25T13:47:15.209Z,100187.59
2022-12-25T13:49:41.766Z,100193.31
2022-12-25T13:52:37.038Z,100187.72
2022-12-25T13:55:12.158Z,100189.81
2022-12-25T13:57:42.197Z,100195.94
2022-12-25T14:00:21.507Z,100188.75
2022-12-25T14:02:49.710Z,100197.22
2022-12-25T14:05:32.350Z,100185.81
2022-12-25T14:08:14.689Z,100184.41
2022-12-25T14:10:41.680Z,100178.38
2022-12-25T14:13:12.756Z,100186.28
2022-12-25T14:15:40.272Z,100178.78
2022-12-25T14:18:13.324Z,100178.38
2022-12-25T14:20:53.436Z,100181.22
2022-12-25T14:23:20.266Z,100174.69
2022-12-25T14:25:47.421Z,100176.94
2022-12-25T14:28:22.397Z,100167.81
2022-12-25T14:30:49.355Z,100169.25
2022-12-25T14:33:20.319Z,100156.69
2022-12-25T14:35:48.017Z,100161.09
2022-12-25T14:38:29.308Z,100157.00
2022-12-25T14:41:25.762Z,100160.09
2022-12-25T14:43:55.830Z,100154.59
2022-12-25T14:46:24.641Z,100155.28
2022-12-25T14:49:21.516Z,100151.66
2022-12-25T14:51:48.349Z,100155.75
2022-12-25T14:54:19.873Z,100145.13
2022-12-25T14:56:51.507Z,100144.41
2022-12-25T14:59:25.224Z,100149.50
2022-12-25T15:01:55.920Z,100131.69
2022-12-25T15:04:23.805Z,100138.00
2022-12-25T15:07:00.177Z,100148.63
2022-12-25T15:09:29.675Z,100162.16
2022-12-25T15:11:56.580Z,100157.75
2022-12-25T15:14:24.509Z,100160.00
2022-12-25T15:16:58.633Z,100152.56
2022-12-25T15:19:34.831Z,100149.31
2022-12-25T15:22:04.023Z,100157.44
2022-12-25T15:24:30.567Z,100153.88
2022-12-25T15:27:00.033Z,100151.72
2022-12-25T15:29:52.119Z,100143.03
2022-12-25T15:32:17.781Z,100129.91
2022-12-25T15:34:46.960Z,100128.28
2022-12-25T15:37:14.176Z,100120.63
2022-12-25T15:39:41.017Z,100118.59
2022-12-25T15:42:16.899Z,100112.91
2022-12-25T15:44:45.068Z,100112.59
2022-12-25T15:47:13.313Z,100109.47
2022-12-25T15:49:39.973Z,100105.00
2022-12-25T15:52:08.316Z,100092.75
2022-12-25T15:54:34.890Z,100102.44
2022-12-25T15:57:05.209Z,100100.44
2022-12-25T15:59:32.720Z,100097.06
2022-12-25T16:02:01.631Z,100107.16
2022-12-25T16:04:31.090Z,100098.59
2022-12-25T16:06:58.534Z,100108.00
2022-12-25T16:09:26.481Z,100100.72
2022-12-25T16:11:53.060Z,100097.19
2022-12-25T16:14:20.013Z,100091.41
2022-12-25T16:16:46.658Z,100092.63
2022-12-25T16:19:13.230Z,100089.50
2022-12-25T16:21:43.585Z,100084.19
2022-12-25T16:24:10.320Z,100088.59
2022-12-25T16:26:36.941Z,100088.06
2022-12-25T16:29:07.588Z,100088.88
2022-12-25T16:31:35.542Z,100087.63
2022-12-25T16:34:02.431Z,100077.44
2022-12-25T16:36:30.379Z,100086.16
2022-12-25T16:38:57.195Z,100081.81
2022-12-25T16:41:24.238Z,100085.63
2022-12-25T16:43:50.841Z,100084.97
2022-12-25T16:46:20.557Z,100089.22
2022-12-25T16:48:47.745Z,100098.78
2022-12-25T16:51:17.247Z,100078.94
2022-12-25T16:53:44.172Z,100084.44
2022-12-25T16:56:14.615Z,100093.75
2022-12-25T16:58:42.449Z,100083.00
2022-12-25T17:01:14.139Z,100080.47
2022-12-25T17:03:40.806Z,100078.81
2022-12-25T17:06:19.705Z,100079.00
2022-12-25T17:08:46.964Z,100077.75
2022-12-25T17:11:14.570Z,100068.97
2022-12-25T17:13:41.346Z,100071.00
2022-12-25T17:16:15.469Z,100067.91
2022-12-25T17:18:42.667Z,100064.03
2022-12-25T17:21:09.725Z,100061.31
2022-12-25T17:23:37.862Z,100073.13
2022-12-25T17:26:05.341Z,100072.75
2022-12-25T17:28:34.011Z,100065.97
2022-12-25T17:31:05.952Z,100072.94
2022-12-25T17:33:35.796Z,100076.03
2022-12-25T17:36:13.648Z,100076.72
2022-12-25T17:38:40.752Z,100085.41
2022-12-25T17:41:10.267Z,100083.06
2022-12-25T17:43:37.511Z,100080.91
2022-12-25T17:46:08.826Z,100090.41
2022-12-25T17:48:36.179Z,100080.75
2022-12-25T17:51:09.937Z,100074.50
2022-12-25T17:53:38.771Z,100078.47
2022-12-25T17:56:05.996Z,100073.66
2022-12-25T17:58:32.809Z,100073.75
2022-12-25T18:01:06.229Z,100066.34
2022-12-25T18:03:33.171Z,100069.47
2022-12-25T18:06:08.276Z,100072.59
2022-12-25T18:08:39.283Z,100065.38
2022-12-25T18:11:09.166Z,100071.16
2022-12-25T18:13:36.195Z,100072.69
2022-12-25T18:16:06.522Z,100076.25
2022-12-25T18:18:33.918Z,100079.03
2022-12-25T18:21:01.738Z,100073.19
2022-12-25T18:23:29.206Z,100078.91
2022-12-25T18:25:56.315Z,100082.63
2022-12-25T18:28:23.025Z,100081.50
2022-12-25T18:30:49.693Z,100079.19
2022-12-25T18:33:16.224Z,100083.81
2022-12-25T18:35:44.053Z,100073.41
2022-12-25T18:38:11.698Z,100079.28
2022-12-25T18:40:42.076Z,100066.94
2022-12-25T18:43:09.227Z,100071.16
2022-12-25T18:45:36.412Z,100083.06
2022-12-25T18:48:06.044Z,100066.94
2022-12-25T18:50:38.230Z,100074.97
2022-12-25T18:53:05.690Z,100069.97
2022-12-25T18:55:32.564Z,100076.28
2022-12-25T18:57:59.219Z,100076.72
2022-12-25T19:00:25.926Z,100083.47
2022-12-25T19:02:58.128Z,100079.16
2022-12-25T19:05:25.222Z,100083.50
2022-12-25T19:07:51.834Z,100079.78
2022-12-25T19:10:18.416Z,100089.06
2022-12-25T19:12:44.909Z,100096.91
2022-12-25T19:15:11.724Z,100093.00
2022-12-25T19:17:38.212Z,100096.03
2022-12-25T19:20:06.010Z,100101.25
2022-12-25T19:22:32.672Z,100093.44
2022-12-25T19:24:59.485Z,100094.34
2022-12-25T19:27:26.038Z,100097.53
2022-12-25T19:29:52.621Z,100096.56
2022-12-25T19:32:19.107Z,100101.56
2022-12-25T19:34:45.753Z,100093.59
2022-12-25T19:37:12.447Z,100107.09
2022-12-25T19:39:39.764Z,100100.31
2022-12-25T19:42:06.312Z,100100.28
2022-12-25T19:44:32.939Z,100101.81
2022-12-25T19:46:59.424Z,100107.75
2022-12-25T19:49:26.053Z,100101.00
2022-12-25T19:51:52.547Z,100096.75
2022-12-25T19:54:20.627Z,100106.53
2022-12-25T19:56:48.743Z,100118.38
2022-12-25T19:59:15.885Z,100114.19
2022-12-25T20:01:42.840Z,100113.25
2022-12-25T20:04:10.303Z,100106.88
2022-12-25T20:06:38.743Z,100114.09
2022-12-25T20:09:08.168Z,100107.53
2022-12-25T20:11:36.709Z,100118.78
2022-12-25T20:14:04.902Z,100118.75
2022-12-25T20:16:31.627Z,100108.84
2022-12-25T20:18:58.727Z,100105.53
2022-12-25T20:21:27.154Z,100100.41
2022-12-25T20:23:53.864Z,100093.78
2022-12-25T20:26:23.315Z,100106.06
2022-12-25T20:28:50.533Z,100099.25
2022-12-25T20:31:21.309Z,100113.69
2022-12-25T20:33:49.497Z,100132.75
2022-12-25T20:36:16.399Z,100139.56
2022-12-25T20:38:42.995Z,100131.09
2022-12-25T20:41:29.072Z,100132.31
2022-12-25T20:43:56.764Z,100136.63
2022-12-25T20:46:24.251Z,100138.91
2022-12-25T20:48:51.789Z,100119.72
2022-12-25T20:51:21.805Z,100129.84
2022-12-25T20:53:49.165Z,100129.84
2022-12-25T20:56:18.130Z,100120.84
2022-12-25T20:58:44.935Z,100124.31
2022-12-25T21:01:15.737Z,100122.59
2022-12-25T21:03:42.753Z,100127.50
2022-12-25T21:06:10.617Z,100120.06
2022-12-25T21:08:38.047Z,100123.06
2022-12-25T21:11:05.201Z,100135.38
2022-12-25T21:13:34.967Z,100128.81
2022-12-25T21:16:06.357Z,100133.25
2022-12-25T21:18:33.851Z,100139.16
2022-12-25T21:21:05.381Z,100140.47
2022-12-25T21:23:33.495Z,100112.03
2022-12-25T21:26:00.138Z,100113.97
2022-12-25T21:28:27.089Z,100132.78
2022-12-25T21:30:53.784Z,100122.44
2022-12-25T21:33:39.037Z,100125.81
2022-12-25T21:36:10.525Z,100124.47
2022-12-25T21:38:38.459Z,100130.63
2022-12-25T21:41:06.980Z,100135.72
2022-12-25T21:43:35.158Z,100134.44
2022-12-25T21:46:07.252Z,100148.19
2022-12-25T21:48:35.886Z,100145.22
2022-12-25T21:51:25.897Z,100149.28
2022-12-25T21:53:52.703Z,100150.97
2022-12-25T21:56:19.299Z,100152.06
2022-12-25T21:58:47.006Z,100154.00
2022-12-25T22:01:17.117Z,100154.31
2022-12-25T22:03:44.427Z,100162.41
2022-12-25T22:06:30.696Z,100168.84
2022-12-25T22:08:57.375Z,100146.34
2022-12-25T22:11:43.406Z,100163.28
2022-12-25T22:14:52.003Z,100157.41
2022-12-25T22:17:40.924Z,100174.56
2022-12-25T22:20:11.045Z,100155.06
2022-12-25T22:22:37.726Z,100164.34
2022-12-25T22:25:07.281Z,100167.13
2022-12-25T22:27:36.415Z,100165.47
2022-12-25T22:30:04.123Z,100193.44
2022-12-25T22:32:30.747Z,100182.47
2022-12-25T22:34:57.408Z,100173.06
2022-12-25T22:37:24.180Z,100167.53
2022-12-25T22:39:50.773Z,100172.19
2022-12-25T22:42:17.433Z,100173.44
2022-12-25T22:44:44.073Z,100176.88
2022-12-25T22:47:10.740Z,100167.53
2022-12-25T22:49:37.380Z,100169.66
2022-12-25T22:52:04.130Z,100173.44
2022-12-25T22:54:31.689Z,100175.19
2022-12-25T22:56:58.845Z,100185.81
2022-12-25T22:59:25.741Z,100182.81
2022-12-25T23:01:53.049Z,100184.50
2022-12-25T23:04:19.800Z,100182.41
2022-12-25T23:06:46.906Z,100179.03
2022-12-25T23:09:20.571Z,100175.59
2022-12-25T23:11:50.939Z,100188.16
2022-12-25T23:14:36.256Z,100188.75
2022-12-25T23:17:03.064Z,100185.81
2022-12-25T23:19:48.572Z,100197.88
2022-12-25T23:22:33.862Z,100198.28
2022-12-25T23:25:19.265Z,100195.44
2022-12-25T23:27:45.930Z,100199.09
2022-12-25T23:30:15.553Z,100192.88
2022-12-25T23:32:43.731Z,100191.66
2022-12-25T23:35:11.540Z,100198.84
2022-12-25T23:37:38.288Z,100187.72
2022-12-25T23:40:05.405Z,100185.84
2022-12-25T23:42:32.061Z,100181.34
2022-12-25T23:44:58.553Z,100200.47
2022-12-25T23:47:25.118Z,100191.78
2022-12-25T23:49:51.634Z,100186.75
2022-12-25T23:52:18.209Z,100200.72
2022-12-25T23:54:44.780Z,100198.13
2022-12-25T23:57:12.030Z,100192.16
2022-12-25T23:59:39.283Z,100175.81
